createdAt,value
2023-01-27T00:00:38.005Z,1.75
2023-01-27T00:03:24.544Z,1.78
2023-01-27T00:06:12.036Z,1.79
2023-01-27T00:08:59.441Z,1.81
2023-01-27T00:12:03.518Z,1.83
2023-01-27T00:14:49.516Z,1.82
2023-01-27T00:17:35.408Z,1.81
2023-01-27T00:20:42.657Z,1.84
2023-01-27T00:23:46.306Z,1.85
2023-01-27T00:26:33.629Z,1.86
2023-01-27T00:29:19.297Z,1.85
2023-01-27T00:32:22.829Z,1.85
2023-01-27T00:35:09.168Z,1.87
2023-01-27T00:37:54.801Z,1.91
2023-01-27T00:40:40.657Z,1.91
2023-01-27T00:43:27.679Z,1.93
2023-01-27T00:46:13.534Z,1.92
2023-01-27T00:48:59.486Z,1.94
2023-01-27T00:51:45.437Z,1.94
2023-01-27T00:54:31.357Z,1.97
2023-01-27T00:57:17.250Z,1.95
2023-01-27T01:00:05.617Z,2.01
2023-01-27T01:02:51.660Z,2.01
2023-01-27T01:05:37.845Z,2.05
2023-01-27T01:08:23.527Z,2.03
2023-01-27T01:11:10.877Z,2.06
2023-01-27T01:13:57.503Z,2.03
2023-01-27T01:16:44.554Z,2.03
2023-01-27T01:19:30.632Z,2.04
2023-01-27T01:22:17.319Z,2.06
2023-01-27T01:25:03.310Z,2.09
2023-01-27T01:27:49.079Z,2.06
2023-01-27T01:30:35.235Z,2.06
2023-01-27T01:33:22.609Z,2.07
2023-01-27T01:36:10.202Z,2.10
2023-01-27T01:38:56.741Z,2.11
2023-01-27T01:41:43.169Z,2.11
2023-01-27T01:44:29.793Z,2.11
2023-01-27T01:47:18.891Z,2.12
2023-01-27T01:50:06.244Z,2.13
2023-01-27T01:52:52.137Z,2.15
2023-01-27T01:55:38.266Z,2.14
2023-01-27T01:58:24.442Z,2.17
2023-01-27T02:01:10.223Z,2.16
2023-01-27T02:03:56.889Z,2.18
2023-01-27T02:06:46.811Z,2.17
2023-01-27T02:09:33.739Z,2.16
2023-01-27T02:12:19.565Z,2.16
2023-01-27T02:15:05.465Z,2.21
2023-01-27T02:17:51.718Z,2.22
2023-01-27T02:20:38.673Z,2.21
2023-01-27T02:23:32.127Z,2.24
2023-01-27T02:26:20.434Z,2.27
2023-01-27T02:29:07.679Z,2.23
2023-01-27T02:31:53.778Z,2.26
2023-01-27T02:34:39.618Z,2.28
2023-01-27T02:37:25.279Z,2.29
2023-01-27T02:40:11.908Z,2.27
2023-01-27T02:42:59.291Z,2.29
2023-01-27T02:45:46.438Z,2.32
2023-01-27T02:48:32.215Z,2.32
2023-01-27T02:51:18.624Z,2.34
2023-01-27T02:54:04.447Z,2.34
2023-01-27T02:56:50.191Z,2.34
2023-01-27T02:59:37.689Z,2.33
2023-01-27T03:02:30.408Z,2.34
2023-01-27T03:05:16.307Z,2.35
2023-01-27T03:08:02.155Z,2.35
2023-01-27T03:10:50.586Z,2.36
2023-01-27T03:13:38.037Z,2.38
2023-01-27T03:16:43.321Z,2.39
2023-01-27T03:19:29.277Z,2.41
2023-01-27T03:22:15.481Z,2.40
2023-01-27T03:25:02.441Z,2.38
2023-01-27T03:27:48.321Z,2.36
2023-01-27T03:30:42.799Z,2.39
2023-01-27T03:33:44.386Z,2.40
2023-01-27T03:37:23.451Z,2.41
2023-01-27T03:40:28.866Z,2.44
2023-01-27T03:43:33.018Z,2.45
2023-01-27T03:46:19.819Z,2.46
2023-01-27T03:49:07.077Z,2.47
2023-01-27T03:51:53.137Z,2.47
2023-01-27T03:54:39.105Z,2.47
2023-01-27T03:57:24.858Z,2.49
2023-01-27T04:00:11.439Z,2.49
2023-01-27T04:03:18.133Z,2.51
2023-01-27T04:06:23.463Z,2.50
2023-01-27T04:09:09.806Z,2.52
2023-01-27T04:11:56.247Z,2.50
2023-01-27T04:14:42.767Z,2.51
2023-01-27T04:17:30.569Z,2.53
2023-01-27T04:20:16.751Z,2.54
2023-01-27T04:23:04.122Z,2.54
2023-01-27T04:25:53.473Z,2.53
2023-01-27T04:28:44.162Z,2.54
2023-01-27T04:31:32.481Z,2.56
2023-01-27T04:34:18.856Z,2.56
2023-01-27T04:37:05.866Z,2.58
2023-01-27T04:39:52.772Z,2.60
2023-01-27T04:42:38.593Z,2.57
2023-01-27T04:45:24.898Z,2.57
2023-01-27T04:48:10.790Z,2.56
2023-01-27T04:50:57.067Z,2.61
2023-01-27T04:53:43.669Z,2.57
2023-01-27T04:56:31.233Z,2.59
2023-01-27T04:59:17.060Z,2.57
2023-01-27T05:02:04.495Z,2.61
2023-01-27T05:04:50.396Z,2.62
2023-01-27T05:07:36.093Z,2.63
2023-01-27T05:10:21.797Z,2.61
2023-01-27T05:13:08.970Z,2.63
2023-01-27T05:16:04.101Z,2.68
2023-01-27T05:18:50.173Z,2.65
2023-01-27T05:21:36.385Z,2.68
2023-01-27T05:24:22.627Z,2.68
2023-01-27T05:27:08.856Z,2.72
2023-01-27T05:29:55.777Z,2.74
2023-01-27T05:32:41.592Z,2.71
2023-01-27T05:35:27.337Z,2.76
2023-01-27T05:38:13.143Z,2.75
2023-01-27T05:41:00.736Z,2.77
2023-01-27T05:43:47.415Z,2.72
2023-01-27T05:46:34.611Z,2.77
2023-01-27T05:49:20.536Z,2.78
2023-01-27T05:52:06.755Z,2.82
2023-01-27T05:54:52.638Z,2.84
2023-01-27T05:57:38.598Z,2.83
2023-01-27T06:00:24.804Z,2.82
2023-01-27T06:03:12.127Z,2.81
2023-01-27T06:05:58.049Z,2.84
2023-01-27T06:08:44.204Z,2.86
2023-01-27T06:11:30.316Z,2.80
2023-01-27T06:14:16.129Z,2.86
2023-01-27T06:17:01.873Z,2.84
2023-01-27T06:19:48.992Z,2.81
2023-01-27T06:22:34.988Z,2.87
2023-01-27T06:25:21.060Z,2.78
2023-01-27T06:28:08.060Z,2.79
2023-01-27T06:30:55.525Z,2.83
2023-01-27T06:33:41.217Z,2.83
2023-01-27T06:36:28.988Z,2.79
2023-01-27T06:39:16.479Z,2.81
2023-01-27T06:42:02.670Z,2.83
2023-01-27T06:44:48.652Z,2.83
2023-01-27T06:47:34.521Z,2.78
2023-01-27T06:50:20.611Z,2.73
2023-01-27T06:53:08.179Z,2.76
2023-01-27T06:55:57.188Z,2.81
2023-01-27T06:58:44.088Z,2.79
2023-01-27T07:01:29.893Z,2.80
2023-01-27T07:04:16.164Z,2.72
2023-01-27T07:07:02.166Z,2.74
2023-01-27T07:09:52.772Z,2.72
2023-01-27T07:12:39.596Z,2.78
2023-01-27T07:15:25.537Z,2.73
2023-01-27T07:18:11.954Z,2.69
2023-01-27T07:20:58.226Z,2.69
2023-01-27T07:23:44.113Z,2.68
2023-01-27T07:26:31.781Z,2.67
2023-01-27T07:29:18.201Z,2.70
2023-01-27T07:32:04.881Z,2.66
2023-01-27T07:34:50.869Z,2.68
2023-01-27T07:37:38.263Z,2.64
2023-01-27T07:40:24.470Z,2.66
2023-01-27T07:43:11.633Z,2.62
2023-01-27T07:45:59.484Z,2.64
2023-01-27T07:48:45.184Z,2.65
2023-01-27T07:51:30.867Z,2.65
2023-01-27T07:54:16.854Z,2.62
2023-01-27T07:57:02.718Z,2.66
2023-01-27T07:59:53.027Z,2.63
2023-01-27T08:02:39.055Z,2.66
2023-01-27T08:05:25.209Z,2.68
2023-01-27T08:08:11.181Z,2.74
2023-01-27T08:10:59.834Z,2.76
2023-01-27T08:13:46.029Z,2.75
2023-01-27T08:16:33.141Z,2.78
2023-01-27T08:19:19.127Z,2.83
2023-01-27T08:22:05.669Z,2.78
2023-01-27T08:24:51.569Z,2.82
2023-01-27T08:27:38.100Z,2.81
2023-01-27T08:30:23.968Z,2.86
2023-01-27T08:33:11.478Z,2.89
2023-01-27T08:35:57.213Z,2.91
2023-01-27T08:38:43.216Z,2.95
2023-01-27T08:41:29.354Z,3.00
2023-01-27T08:44:15.334Z,3.00
2023-01-27T08:47:00.939Z,3.03
2023-01-27T08:49:48.865Z,3.00
2023-01-27T08:52:34.962Z,2.98
2023-01-27T08:55:20.670Z,3.09
2023-01-27T08:58:06.388Z,3.07
2023-01-27T09:00:52.152Z,3.12
2023-01-27T09:03:38.114Z,3.10
2023-01-27T09:06:26.282Z,3.12
2023-01-27T09:09:12.519Z,3.13
2023-01-27T09:11:58.556Z,3.16
2023-01-27T09:14:44.540Z,3.21
2023-01-27T09:17:30.300Z,3.22
2023-01-27T09:20:16.101Z,3.24
2023-01-27T09:23:03.867Z,3.25
2023-01-27T09:25:50.248Z,3.14
2023-01-27T09:28:36.113Z,3.24
2023-01-27T09:31:22.232Z,3.12
2023-01-27T09:34:08.443Z,3.18
2023-01-27T09:36:55.532Z,3.25
2023-01-27T09:39:43.493Z,3.27
2023-01-27T09:42:40.175Z,3.22
2023-01-27T09:45:44.726Z,3.30
2023-01-27T09:48:42.975Z,3.23
2023-01-27T09:51:31.485Z,3.30
2023-01-27T09:54:20.739Z,3.35
2023-01-27T09:57:10.489Z,3.37
2023-01-27T10:00:00.821Z,3.30
2023-01-27T10:03:01.545Z,3.41
2023-01-27T10:05:54.446Z,3.45
2023-01-27T10:08:44.768Z,3.60
2023-01-27T10:11:31.637Z,3.63
2023-01-27T10:14:22.977Z,3.69
2023-01-27T10:17:16.209Z,3.70
2023-01-27T10:20:15.344Z,3.70
2023-01-27T10:23:07.931Z,3.71
2023-01-27T10:25:55.795Z,3.77
2023-01-27T10:28:42.040Z,3.86
2023-01-27T10:31:30.718Z,3.87
2023-01-27T10:34:19.737Z,3.83
2023-01-27T10:37:10.083Z,3.83
2023-01-27T10:39:57.787Z,4.00
2023-01-27T10:42:45.192Z,4.09
2023-01-27T10:45:31.830Z,4.03
2023-01-27T10:48:26.605Z,4.13
2023-01-27T10:51:13.043Z,4.10
2023-01-27T10:53:59.636Z,4.05
2023-01-27T10:56:46.080Z,3.94
2023-01-27T10:59:33.941Z,3.83
2023-01-27T11:02:24.275Z,3.87
2023-01-27T11:05:12.620Z,3.85
2023-01-27T11:07:58.746Z,3.79
2023-01-27T11:11:06.069Z,3.72
2023-01-27T11:13:52.113Z,3.72
2023-01-27T11:16:40.251Z,3.75
2023-01-27T11:19:38.502Z,3.75
2023-01-27T11:22:28.012Z,3.63
2023-01-27T11:25:17.142Z,3.67
2023-01-27T11:28:05.409Z,3.64
2023-01-27T11:30:52.572Z,3.69
2023-01-27T11:33:44.158Z,3.79
2023-01-27T11:36:30.056Z,3.67
2023-01-27T11:39:18.060Z,3.72
2023-01-27T11:42:04.046Z,3.63
2023-01-27T11:44:49.769Z,3.67
2023-01-27T11:47:35.897Z,3.74
2023-01-27T11:50:21.836Z,3.78
2023-01-27T11:53:12.006Z,3.73
2023-01-27T11:56:00.505Z,3.62
2023-01-27T11:58:46.749Z,3.67
2023-01-27T12:01:37.331Z,3.61
2023-01-27T12:04:24.081Z,3.53
2023-01-27T12:07:11.677Z,3.37
2023-01-27T12:09:57.588Z,3.55
2023-01-27T12:12:45.175Z,3.58
2023-01-27T12:15:30.920Z,3.63
2023-01-27T12:18:16.883Z,3.55
2023-01-27T12:21:03.458Z,3.54
2023-01-27T12:23:50.031Z,3.61
2023-01-27T12:26:37.460Z,3.53
2023-01-27T12:29:26.763Z,3.56
2023-01-27T12:32:15.085Z,3.57
2023-01-27T12:35:01.301Z,3.51
2023-01-27T12:37:47.122Z,3.51
2023-01-27T12:40:32.811Z,3.59
2023-01-27T12:43:19.881Z,3.45
2023-01-27T12:46:19.213Z,3.44
2023-01-27T12:49:11.248Z,3.49
2023-01-27T12:51:57.428Z,3.51
2023-01-27T12:54:43.687Z,3.39
2023-01-27T12:57:29.786Z,3.45
2023-01-27T13:00:16.631Z,3.45
2023-01-27T13:03:06.575Z,3.54
2023-01-27T13:05:53.785Z,3.54
2023-01-27T13:08:39.859Z,3.68
2023-01-27T13:11:30.742Z,3.54
2023-01-27T13:14:17.258Z,3.63
2023-01-27T13:17:03.521Z,3.62
2023-01-27T13:19:52.094Z,3.47
2023-01-27T13:22:41.352Z,3.48
2023-01-27T13:25:29.084Z,3.51
2023-01-27T13:28:16.493Z,3.58
2023-01-27T13:31:03.908Z,3.43
2023-01-27T13:33:50.606Z,3.43
2023-01-27T13:36:38.906Z,3.45
2023-01-27T13:39:27.169Z,3.39
2023-01-27T13:42:14.973Z,3.40
2023-01-27T13:45:01.429Z,3.45
2023-01-27T13:47:50.299Z,3.43
2023-01-27T13:50:36.519Z,3.38
2023-01-27T13:53:23.676Z,3.41
2023-01-27T13:56:13.779Z,3.28
2023-01-27T13:59:01.721Z,3.30
2023-01-27T14:01:48.900Z,3.33
2023-01-27T14:04:41.199Z,3.13
2023-01-27T14:07:29.206Z,3.19
2023-01-27T14:10:21.313Z,3.02
2023-01-27T14:13:15.046Z,3.13
2023-01-27T14:16:02.964Z,3.02
2023-01-27T14:18:49.516Z,3.02
2023-01-27T14:21:43.494Z,3.00
2023-01-27T14:24:37.009Z,3.00
2023-01-27T14:27:26.189Z,2.82
2023-01-27T14:30:13.846Z,2.94
2023-01-27T14:33:02.028Z,2.89
2023-01-27T14:35:49.261Z,2.89
2023-01-27T14:38:37.877Z,2.99
2023-01-27T14:41:24.911Z,2.98
2023-01-27T14:44:14.483Z,2.92
2023-01-27T14:47:02.496Z,2.82
2023-01-27T14:49:54.306Z,2.86
2023-01-27T14:52:41.768Z,2.92
2023-01-27T14:55:29.949Z,2.94
2023-01-27T14:58:20.925Z,2.92
2023-01-27T15:01:11.208Z,2.92
2023-01-27T15:04:05.114Z,2.94
2023-01-27T15:06:52.976Z,2.94
2023-01-27T15:09:45.689Z,2.86
2023-01-27T15:12:38.456Z,2.89
2023-01-27T15:15:27.341Z,2.88
2023-01-27T15:18:18.568Z,2.87
2023-01-27T15:21:08.966Z,2.85
2023-01-27T15:23:58.078Z,2.81
2023-01-27T15:26:44.151Z,2.88
2023-01-27T15:29:30.661Z,2.83
2023-01-27T15:32:26.994Z,2.76
2023-01-27T15:35:34.443Z,2.83
2023-01-27T15:38:21.856Z,2.88
2023-01-27T15:41:12.494Z,2.84
2023-01-27T15:44:05.589Z,2.84
2023-01-27T15:46:52.118Z,2.69
2023-01-27T15:49:38.428Z,2.79
2023-01-27T15:52:28.192Z,2.72
2023-01-27T15:55:23.645Z,2.74
2023-01-27T15:58:17.397Z,2.60
2023-01-27T16:01:04.310Z,2.64
2023-01-27T16:03:50.170Z,2.62
2023-01-27T16:06:36.215Z,2.64
2023-01-27T16:09:25.596Z,2.52
2023-01-27T16:12:32.709Z,2.55
2023-01-27T16:15:38.830Z,2.52
2023-01-27T16:18:26.043Z,2.57
2023-01-27T16:21:18.724Z,2.49
2023-01-27T16:24:06.211Z,2.52
2023-01-27T16:26:55.117Z,2.43
2023-01-27T16:29:43.339Z,2.40
2023-01-27T16:32:29.696Z,2.42
2023-01-27T16:35:16.976Z,2.31
2023-01-27T16:38:03.926Z,2.29
2023-01-27T16:40:50.447Z,2.16
2023-01-27T16:43:42.062Z,2.16
2023-01-27T16:46:29.972Z,2.15
2023-01-27T16:49:16.503Z,2.07
2023-01-27T16:52:03.654Z,2.00
2023-01-27T16:54:51.096Z,2.12
2023-01-27T16:57:39.360Z,2.04
2023-01-27T17:00:27.863Z,2.03
2023-01-27T17:03:14.609Z,2.09
2023-01-27T17:06:01.387Z,2.05
2023-01-27T17:08:47.412Z,1.87
2023-01-27T17:11:33.840Z,2.01
2023-01-27T17:14:30.260Z,1.83
2023-01-27T17:17:19.080Z,1.85
2023-01-27T17:20:07.208Z,1.85
2023-01-27T17:22:54.291Z,1.85
2023-01-27T17:25:40.347Z,1.86
2023-01-27T17:28:27.306Z,1.80
2023-01-27T17:31:14.617Z,1.74
2023-01-27T17:34:02.336Z,1.75
2023-01-27T17:37:07.788Z,1.75
2023-01-27T17:39:54.179Z,1.69
2023-01-27T17:42:40.108Z,1.74
2023-01-27T17:45:28.596Z,1.75
2023-01-27T17:48:15.838Z,1.74
2023-01-27T17:51:03.997Z,1.63
2023-01-27T17:53:49.927Z,1.66
2023-01-27T17:56:35.679Z,1.62
2023-01-27T17:59:22.278Z,1.72
2023-01-27T18:02:09.402Z,1.67
2023-01-27T18:04:55.273Z,1.52
2023-01-27T18:07:42.547Z,1.59
2023-01-27T18:10:36.325Z,1.62
2023-01-27T18:13:35.697Z,1.61
2023-01-27T18:16:22.036Z,1.60
2023-01-27T18:19:09.027Z,1.57
2023-01-27T18:22:02.034Z,1.50
2023-01-27T18:24:50.289Z,1.51
2023-01-27T18:27:37.378Z,1.52
2023-01-27T18:30:24.321Z,1.48
2023-01-27T18:33:10.189Z,1.47
2023-01-27T18:35:59.749Z,1.51
2023-01-27T18:38:48.131Z,1.42
2023-01-27T18:41:38.125Z,1.43
2023-01-27T18:44:27.252Z,1.35
2023-01-27T18:47:31.466Z,1.45
2023-01-27T18:50:18.305Z,1.41
2023-01-27T18:53:06.236Z,1.42
2023-01-27T18:55:53.685Z,1.45
2023-01-27T18:58:41.318Z,1.34
2023-01-27T19:01:27.092Z,1.36
2023-01-27T19:04:13.039Z,1.35
2023-01-27T19:07:00.203Z,1.40
2023-01-27T19:09:46.696Z,1.42
2023-01-27T19:12:32.504Z,1.38
2023-01-27T19:15:23.683Z,1.38
2023-01-27T19:18:10.567Z,1.30
2023-01-27T19:20:56.619Z,1.35
2023-01-27T19:23:44.316Z,1.33
2023-01-27T19:26:30.319Z,1.32
2023-01-27T19:29:16.539Z,1.39
2023-01-27T19:32:03.760Z,1.37
2023-01-27T19:34:49.816Z,1.32
2023-01-27T19:37:35.647Z,1.30
2023-01-27T19:40:22.033Z,1.27
2023-01-27T19:43:08.141Z,1.30
2023-01-27T19:45:54.273Z,1.33
2023-01-27T19:48:41.714Z,1.29
2023-01-27T19:51:27.662Z,1.30
2023-01-27T19:54:13.787Z,1.28
2023-01-27T19:56:59.559Z,1.26
2023-01-27T19:59:45.348Z,1.29
2023-01-27T20:02:31.871Z,1.33
2023-01-27T20:05:19.313Z,1.30
2023-01-27T20:08:05.366Z,1.29
2023-01-27T20:10:51.883Z,1.35
2023-01-27T20:13:37.677Z,1.35
2023-01-27T20:16:24.920Z,1.26
2023-01-27T20:19:11.804Z,1.28
2023-01-27T20:22:01.410Z,1.23
2023-01-27T20:24:47.281Z,1.25
2023-01-27T20:27:33.236Z,1.27
2023-01-27T20:30:19.381Z,1.28
2023-01-27T20:33:05.445Z,1.23
2023-01-27T20:35:51.333Z,1.24
2023-01-27T20:38:38.337Z,1.20
2023-01-27T20:41:24.313Z,1.25
2023-01-27T20:44:10.473Z,1.23
2023-01-27T20:46:56.219Z,1.28
2023-01-27T20:49:43.172Z,1.21
2023-01-27T20:52:29.153Z,1.23
2023-01-27T20:55:16.976Z,1.27
2023-01-27T20:58:03.275Z,1.21
2023-01-27T21:00:49.108Z,1.23
2023-01-27T21:03:35.561Z,1.23
2023-01-27T21:06:21.500Z,1.17
2023-01-27T21:09:07.152Z,1.16
2023-01-27T21:11:54.321Z,1.22
2023-01-27T21:14:40.324Z,1.21
2023-01-27T21:17:26.109Z,1.18
2023-01-27T21:20:12.366Z,1.13
2023-01-27T21:22:58.345Z,1.13
2023-01-27T21:25:44.252Z,1.20
2023-01-27T21:28:32.697Z,1.20
2023-01-27T21:31:19.385Z,1.18
2023-01-27T21:34:05.520Z,1.18
2023-01-27T21:36:51.300Z,1.22
2023-01-27T21:39:37.348Z,1.21
2023-01-27T21:42:41.044Z,1.18
2023-01-27T21:45:28.635Z,1.19
2023-01-27T21:48:15.021Z,1.18
2023-01-27T21:51:01.020Z,1.15
2023-01-27T21:53:47.200Z,1.15
2023-01-27T21:56:32.882Z,1.09
2023-01-27T21:59:19.473Z,1.07
2023-01-27T22:02:08.418Z,1.03
2023-01-27T22:04:54.508Z,1.05
2023-01-27T22:07:40.562Z,1.03
2023-01-27T22:10:26.850Z,1.01
2023-01-27T22:13:12.702Z,0.99
2023-01-27T22:15:58.753Z,0.97
2023-01-27T22:18:46.304Z,1.01
2023-01-27T22:21:32.345Z,0.93
2023-01-27T22:24:18.173Z,1.00
2023-01-27T22:27:04.559Z,0.98
2023-01-27T22:29:50.315Z,0.90
2023-01-27T22:32:36.031Z,0.90
2023-01-27T22:35:23.114Z,0.91
2023-01-27T22:38:09.031Z,0.90
2023-01-27T22:40:58.481Z,0.91
2023-01-27T22:43:44.537Z,0.88
2023-01-27T22:46:30.344Z,0.91
2023-01-27T22:49:16.244Z,0.90
2023-01-27T22:52:03.283Z,0.95
2023-01-27T22:54:49.020Z,0.86
2023-01-27T22:57:35.033Z,0.76
2023-01-27T23:00:21.080Z,0.73
2023-01-27T23:03:06.864Z,0.79
2023-01-27T23:05:52.861Z,0.80
2023-01-27T23:08:40.046Z,0.82
2023-01-27T23:11:25.668Z,0.84
2023-01-27T23:14:11.466Z,0.85
2023-01-27T23:16:58.496Z,0.86
2023-01-27T23:19:44.515Z,0.80
2023-01-27T23:22:30.311Z,0.78
2023-01-27T23:25:17.835Z,0.83
2023-01-27T23:28:03.918Z,0.84
2023-01-27T23:30:50.237Z,0.83
2023-01-27T23:33:37.203Z,0.86
2023-01-27T23:36:23.163Z,0.85
2023-01-27T23:39:10.334Z,0.84
2023-01-27T23:41:57.380Z,0.86
2023-01-27T23:44:43.246Z,0.87
2023-01-27T23:47:29.670Z,0.86
2023-01-27T23:50:15.774Z,0.88
2023-01-27T23:53:01.661Z,0.89
2023-01-27T23:55:55.086Z,0.87
2023-01-27T23:58:43.940Z,0.86
